Energean Wave — SVA6915 — position and weather

sailwx.info

Track history (hours):
 
Tides and Currents Weather Stations Pressure Air Temp Water Temp Dewpoint Dewpoint Depression Visibility Wind Speed Wind Dir Waves Ship Positions

Energean Wave

Last reported at 2018-Jun-21 10:00 UTC. Time now 2018-Jun-21 10:11 UTC.
Position N 40°56' E 024°24'.

Length 47 m; draft 2 m.

Type: . MMSI: 239935100.

Date/timePositionNaut miles runAvg speedWind from/ knotsBaromVisibWave heightAir tempDewpointWater temp
2018-Jun-21 10:00N 40°56' E 024°24'0 0.0
2018-Jun-21 09:30N 40°56' E 024°24'0 0.0
2018-Jun-21 09:00N 40°56' E 024°24'0 0.0
2018-Jun-21 08:30N 40°56' E 024°24'0 0.0
2018-Jun-21 08:00N 40°56' E 024°24'0 0.0
2018-Jun-21 07:30N 40°56' E 024°24'0 0.0
2018-Jun-21 07:00N 40°56' E 024°24'0 0.0
2018-Jun-21 06:30N 40°56' E 024°24'0 0.0
2018-Jun-21 06:00N 40°56' E 024°24'5 9.6
2018-Jun-21 05:30N 40°51' E 024°27'4 8.1
2018-Jun-21 04:59N 40°48' E 024°30'511.3
2018-Jun-21 04:30N 40°53' E 024°27'3 6.9
2018-Jun-21 04:00N 40°56' E 024°24'0 0.0
2018-Jun-21 03:30N 40°56' E 024°24'0 0.0
2018-Jun-21 03:00N 40°56' E 024°24'0 0.0
2018-Jun-21 02:30N 40°56' E 024°24'0 0.0
2018-Jun-21 02:00N 40°56' E 024°24'0 0.0
2018-Jun-21 01:30N 40°56' E 024°24'0 0.0
2018-Jun-21 01:00N 40°56' E 024°24'0 0.0
2018-Jun-21 00:30N 40°56' E 024°24'0 0.0
2018-Jun-21 00:00N 40°56' E 024°24'0 0.0
2018-Jun-20 23:30N 40°56' E 024°24'0 0.0
2018-Jun-20 23:00N 40°56' E 024°24'0 0.0
2018-Jun-20 22:30N 40°56' E 024°24'0 0.0
2018-Jun-20 21:57N 40°56' E 024°24'0 0.0
2018-Jun-20 21:30N 40°56' E 024°24'0 0.0
2018-Jun-20 21:00N 40°56' E 024°24'0 0.0
2018-Jun-20 20:30N 40°56' E 024°24'0 0.0
2018-Jun-20 20:00N 40°56' E 024°24'0 0.0
2018-Jun-20 19:30N 40°56' E 024°24'0 0.0
2018-Jun-20 19:00N 40°56' E 024°24'0 0.0
2018-Jun-20 18:30N 40°56' E 024°24'0 0.0
2018-Jun-20 18:00N 40°56' E 024°24'0 0.0
2018-Jun-20 17:30N 40°56' E 024°24'0 0.0
2018-Jun-20 16:57N 40°56' E 024°24'0 0.0
2018-Jun-20 16:30N 40°56' E 024°24'0 0.0
2018-Jun-20 16:00N 40°56' E 024°24'0 0.0
2018-Jun-20 15:30N 40°56' E 024°24'0 0.0
2018-Jun-20 15:00N 40°56' E 024°24'0 0.0
2018-Jun-20 14:30N 40°56' E 024°24'0 0.2
2018-Jun-20 14:00N 40°56' E 024°24'714.9
2018-Jun-20 13:30N 40°49' E 024°28'2 3.3
2018-Jun-20 13:00N 40°48' E 024°30'611.4
2018-Jun-20 12:30N 40°53' E 024°26'3 6.1
2018-Jun-20 11:58N 40°56' E 024°25'0 0.0
2018-Jun-20 11:28N 40°56' E 024°25'4 8.9
2018-Jun-20 11:01N 40°56' E 024°30'2 3.9
2018-Jun-20 10:29N 40°57' E 024°33'613.2
2018-Jun-20 10:00N 40°51' E 024°31'3 6.3
2018-Jun-20 09:30N 40°48' E 024°30'0 0.3
2018-Jun-20 09:00N 40°48' E 024°30'0 0.4
2018-Jun-20 08:30N 40°48' E 024°30'815.3
2018-Jun-20 08:00N 40°55' E 024°32'2 3.7
2018-Jun-20 07:28N 40°57' E 024°33'0 0.0
2018-Jun-20 06:58N 40°57' E 024°33'0 0.1
2018-Jun-20 06:30N 40°57' E 024°33'612.3
2018-Jun-20 06:00N 40°56' E 024°25'611.7
2018-Jun-20 05:29N 40°50' E 024°28'3 6.2
2018-Jun-20 05:00N 40°48' E 024°30'510.9
2018-Jun-20 04:30N 40°53' E 024°27'3 6.8
2018-Jun-20 04:00N 40°56' E 024°25'0 0.0
2018-Jun-20 03:30N 40°56' E 024°25'0 0.0
2018-Jun-20 03:00N 40°56' E 024°25'0 0.0
2018-Jun-20 02:30N 40°56' E 024°25'0 0.0
2018-Jun-20 02:00N 40°56' E 024°25'0 0.0
2018-Jun-20 01:30N 40°56' E 024°25'0 0.0
2018-Jun-20 01:00N 40°56' E 024°25'0 0.0
2018-Jun-20 00:30N 40°56' E 024°25'0 0.0
2018-Jun-20 00:00N 40°56' E 024°25'0 0.0
2018-Jun-19 23:30N 40°56' E 024°25'0 0.0
2018-Jun-19 23:00N 40°56' E 024°25'0 0.0
2018-Jun-19 22:30N 40°56' E 024°25'0 0.0
2018-Jun-19 22:00N 40°56' E 024°25'0 0.0
2018-Jun-19 21:30N 40°56' E 024°25'0 0.0
2018-Jun-19 20:57N 40°56' E 024°25'0 0.0
2018-Jun-19 20:30N 40°56' E 024°25'0 0.0
2018-Jun-19 19:57N 40°56' E 024°25'0 0.0
2018-Jun-19 19:30N 40°56' E 024°25'0 0.0
2018-Jun-19 19:00N 40°56' E 024°25'0 0.0
2018-Jun-19 18:30N 40°56' E 024°25'0 0.0
2018-Jun-19 18:00N 40°56' E 024°25'0 0.0
2018-Jun-19 17:30N 40°56' E 024°25'0 0.0
2018-Jun-19 17:00N 40°56' E 024°25'0 0.0
2018-Jun-19 16:12N 40°56' E 024°25'0 0.0
2018-Jun-19 15:54N 40°56' E 024°25'0 0.0
2018-Jun-19 15:30N 40°56' E 024°25'0 0.0
2018-Jun-19 15:00N 40°56' E 024°25'0 0.0
2018-Jun-19 14:24N 40°56' E 024°25'0 0.3
2018-Jun-19 14:00N 40°56' E 024°24'815.8
2018-Jun-19 13:29N 40°49' E 024°29'1 1.8
2018-Jun-19 13:00N 40°48' E 024°30'611.3
2018-Jun-19 12:30N 40°53' E 024°27'3 6.3
2018-Jun-19 11:58N 40°56' E 024°25'0 0.0
2018-Jun-19 11:25N 40°56' E 024°25'0 0.0
2018-Jun-19 10:58N 40°56' E 024°25'0 0.0
2018-Jun-19 10:28N 40°56' E 024°25'0 0.0
2018-Jun-19 09:58N 40°56' E 024°25'0 0.0
2018-Jun-19 09:28N 40°56' E 024°25'0 0.0
2018-Jun-19 08:58N 40°56' E 024°25'0 0.0
2018-Jun-19 08:28N 40°56' E 024°25'0 0.0
2018-Jun-19 07:55N 40°56' E 024°25'0 0.0
2018-Jun-19 07:30N 40°56' E 024°25'0 0.0
2018-Jun-19 07:00N 40°56' E 024°25'0 0.0
2018-Jun-19 06:30N 40°56' E 024°25'0 0.0
2018-Jun-19 06:00N 40°56' E 024°25'4 9.2
2018-Jun-19 05:31N 40°52' E 024°27'5 8.6
2018-Jun-19 04:59N 40°48' E 024°30'611.6
2018-Jun-19 04:31N 40°53' E 024°27'3 5.8
2018-Jun-19 03:56N 40°56' E 024°25'0 0.0
2018-Jun-19 02:02N 40°56' E 024°25'0 0.0
2018-Jun-19 01:56N 40°56' E 024°25'0 0.0
2018-Jun-19 01:26N 40°56' E 024°25'0 0.0
2018-Jun-19 00:50N 40°56' E 024°25'0 0.0
2018-Jun-18 23:26N 40°56' E 024°25'0 0.0
2018-Jun-18 22:59N 40°56' E 024°25'0 0.0
2018-Jun-18 22:26N 40°56' E 024°25'0 0.0
2018-Jun-18 21:56N 40°56' E 024°25'0 0.0
2018-Jun-18 21:29N 40°56' E 024°25'0 0.0
2018-Jun-18 20:59N 40°56' E 024°25'0 0.0
2018-Jun-18 20:29N 40°56' E 024°25'0 0.0
2018-Jun-18 19:59N 40°56' E 024°25'0 0.0
2018-Jun-18 19:26N 40°56' E 024°25'0 0.0
2018-Jun-18 18:56N 40°56' E 024°25'0 0.0
2018-Jun-18 18:26N 40°56' E 024°25'0 0.0
2018-Jun-18 17:59N 40°56' E 024°25'0 0.0
2018-Jun-18 17:26N 40°56' E 024°25'0 0.0
2018-Jun-18 16:56N 40°56' E 024°25'0 0.0
2018-Jun-18 16:29N 40°56' E 024°25'0 0.0
2018-Jun-18 15:59N 40°56' E 024°25'0 0.0
2018-Jun-18 15:14N 40°56' E 024°25'0 0.0
2018-Jun-18 14:56N 40°56' E 024°25'0 0.0
2018-Jun-18 14:29N 40°56' E 024°25'0 0.4
2018-Jun-18 14:00N 40°56' E 024°25'714.3
2018-Jun-18 13:30N 40°49' E 024°28'2 4.4
2018-Jun-18 13:00N 40°48' E 024°30'611.5
2018-Jun-18 12:30N 40°53' E 024°26'4 7.0
2018-Jun-18 12:00N 40°56' E 024°25'612.2
2018-Jun-18 11:31N 40°57' E 024°33'0 0.1
2018-Jun-18 10:56N 40°57' E 024°33'612.9
2018-Jun-18 10:30N 40°52' E 024°31'4 8.1
2018-Jun-18 10:01N 40°48' E 024°30'0 0.1
2018-Jun-18 09:30N 40°48' E 024°30'0 0.1
2018-Jun-18 09:00N 40°48' E 024°30'5 9.3
2018-Jun-18 08:30N 40°52' E 024°31'5 9.3
2018-Jun-18 07:58N 40°57' E 024°33'0 0.0
2018-Jun-18 07:28N 40°57' E 024°33'0 0.0
2018-Jun-18 06:58N 40°57' E 024°33'1 2.5
2018-Jun-18 06:30N 40°57' E 024°31'5 9.3
2018-Jun-18 06:00N 40°56' E 024°25'4 7.8
2018-Jun-18 05:30N 40°52' E 024°26'5 9.6
2018-Jun-18 05:00N 40°48' E 024°30'510.7
2018-Jun-18 04:30N 40°53' E 024°27'4 6.5
2018-Jun-18 03:58N 40°56' E 024°25'0 0.0
2018-Jun-18 03:28N 40°56' E 024°25'0 0.0
2018-Jun-18 02:58N 40°56' E 024°25'0 0.0
2018-Jun-18 02:25N 40°56' E 024°25'0 0.0
2018-Jun-18 01:55N 40°56' E 024°25'0 0.0
2018-Jun-18 01:28N 40°56' E 024°25'0 0.0
2018-Jun-18 00:58N 40°56' E 024°25'0 0.0
2018-Jun-18 00:28N 40°56' E 024°25'0 0.0
2018-Jun-17 23:55N 40°56' E 024°25'0 0.0
2018-Jun-17 23:25N 40°56' E 024°25'0 0.0
2018-Jun-17 22:55N 40°56' E 024°25'0 0.0
2018-Jun-17 22:19N 40°56' E 024°25'0 0.0
2018-Jun-17 21:49N 40°56' E 024°25'0 0.0
2018-Jun-17 21:25N 40°56' E 024°25'0 0.0
2018-Jun-17 20:58N 40°56' E 024°25'0 0.0
2018-Jun-17 20:25N 40°56' E 024°25'0 0.0
2018-Jun-17 19:55N 40°56' E 024°25'0 0.0
2018-Jun-17 19:25N 40°56' E 024°25'0 0.0
2018-Jun-17 18:55N 40°56' E 024°25'0 0.0
2018-Jun-17 18:25N 40°56' E 024°25'0 0.0
2018-Jun-17 17:55N 40°56' E 024°25'0 0.0
2018-Jun-17 17:25N 40°56' E 024°25'0 0.0
2018-Jun-17 16:55N 40°56' E 024°25'0 0.0
2018-Jun-17 16:25N 40°56' E 024°25'0 0.0
2018-Jun-17 15:55N 40°56' E 024°25'0 0.0
2018-Jun-17 15:25N 40°56' E 024°25'0 0.0
2018-Jun-17 14:55N 40°56' E 024°25'0 0.0
2018-Jun-17 14:25N 40°56' E 024°25'0 0.0
2018-Jun-17 13:55N 40°56' E 024°25'0 0.0
2018-Jun-17 13:25N 40°56' E 024°25'0 0.0
2018-Jun-17 12:55N 40°56' E 024°25'0 0.0
2018-Jun-17 12:25N 40°56' E 024°25'0 0.0
2018-Jun-17 11:55N 40°56' E 024°25'0 0.0
2018-Jun-17 11:28N 40°56' E 024°25'0 0.0
2018-Jun-17 10:55N 40°56' E 024°25'0 0.0
2018-Jun-17 10:28N 40°56' E 024°25'0 0.0
2018-Jun-17 09:58N 40°56' E 024°25'0 0.0
2018-Jun-17 09:28N 40°56' E 024°25'0 0.0
2018-Jun-17 08:58N 40°56' E 024°25'0 0.0
2018-Jun-17 08:28N 40°56' E 024°25'0 0.0
2018-Jun-17 07:55N 40°56' E 024°25'0 0.0
2018-Jun-17 07:25N 40°56' E 024°25'0 0.0
2018-Jun-17 06:58N 40°56' E 024°25'0 0.0
2018-Jun-17 06:25N 40°56' E 024°25'0 0.0
2018-Jun-17 05:55N 40°56' E 024°25'0 0.0
2018-Jun-17 05:01N 40°56' E 024°25'0 0.0
2018-Jun-17 04:40N 40°56' E 024°25'0 0.0
2018-Jun-17 04:28N 40°56' E 024°25'0 0.0
2018-Jun-17 03:55N 40°56' E 024°25'0 0.0
2018-Jun-17 03:13N 40°56' E 024°25'0 0.0
2018-Jun-17 02:43N 40°56' E 024°25'0 0.0
2018-Jun-17 02:07N 40°56' E 024°25'0 0.0
2018-Jun-17 01:55N 40°56' E 024°25'0 0.0
2018-Jun-17 00:49N 40°56' E 024°25'0 0.0
2018-Jun-17 00:22N 40°56' E 024°25'0 0.0
2018-Jun-16 23:55N 40°56' E 024°25'0 0.0
2018-Jun-16 23:25N 40°56' E 024°25'0 0.0
2018-Jun-16 22:31N 40°56' E 024°25'0 0.0
2018-Jun-16 22:25N 40°56' E 024°25'0 0.0
2018-Jun-16 21:56N 40°56' E 024°25'410.4
2018-Jun-16 21:30N 40°52' E 024°27'4 8.6
2018-Jun-16 20:59N 40°48' E 024°30'510.3
2018-Jun-16 20:30N 40°52' E 024°27'4 6.6
2018-Jun-16 19:55N 40°56' E 024°25'0 0.0
2018-Jun-16 19:25N 40°56' E 024°25'0 0.0
2018-Jun-16 18:55N 40°56' E 024°25'0 0.0
2018-Jun-16 18:25N 40°56' E 024°25'0 0.0
2018-Jun-16 17:55N 40°56' E 024°25'0 0.0
2018-Jun-16 17:22N 40°56' E 024°25'0 0.0
2018-Jun-16 16:58N 40°56' E 024°25'0 0.0
2018-Jun-16 16:28N 40°56' E 024°25'0 0.0
2018-Jun-16 15:55N 40°56' E 024°25'0 0.0
2018-Jun-16 15:25N 40°56' E 024°25'0 0.0
2018-Jun-16 14:58N 40°56' E 024°25'0 0.0
2018-Jun-16 14:28N 40°56' E 024°25'0 0.0
2018-Jun-16 14:00N 40°56' E 024°25'611.0
2018-Jun-16 13:30N 40°51' E 024°27'3 6.4
2018-Jun-16 12:59N 40°48' E 024°30'511.4
2018-Jun-16 12:30N 40°53' E 024°26'3 6.1
2018-Jun-16 11:56N 40°56' E 024°25'0 0.0
2018-Jun-16 11:26N 40°56' E 024°25'0 0.0
2018-Jun-16 10:56N 40°56' E 024°25'0 0.0
2018-Jun-16 10:20N 40°56' E 024°25'0 0.0
2018-Jun-16 09:56N 40°56' E 024°25'0 0.0
2018-Jun-16 09:20N 40°56' E 024°25'0 0.0
2018-Jun-16 08:56N 40°56' E 024°25'0 0.0
2018-Jun-16 08:26N 40°56' E 024°25'0 0.0
2018-Jun-16 07:56N 40°56' E 024°25'0 0.0
2018-Jun-16 07:26N 40°56' E 024°25'0 0.0
2018-Jun-16 06:56N 40°56' E 024°25'0 0.0
2018-Jun-16 06:20N 40°56' E 024°25'0 0.0
2018-Jun-16 05:54N 40°56' E 024°25'4 9.6
2018-Jun-16 05:30N 40°52' E 024°26'510.3
2018-Jun-16 05:00N 40°48' E 024°30'611.1
2018-Jun-16 04:31N 40°53' E 024°27'3 6.4
2018-Jun-16 03:59N 40°56' E 024°25'0 0.0
2018-Jun-16 03:29N 40°56' E 024°25'0 0.0
2018-Jun-16 02:59N 40°56' E 024°25'0 0.0
2018-Jun-16 02:29N 40°56' E 024°25'0 0.0
2018-Jun-16 01:56N 40°56' E 024°25'0 0.0
2018-Jun-16 01:26N 40°56' E 024°25'0 0.0
2018-Jun-16 00:56N 40°56' E 024°25'0 0.0
2018-Jun-16 00:26N 40°56' E 024°25'0 0.0
2018-Jun-15 23:44N 40°56' E 024°25'0 0.0
2018-Jun-15 23:26N 40°56' E 024°25'0 0.0
2018-Jun-15 22:56N 40°56' E 024°25'0 0.0
2018-Jun-15 21:44N 40°56' E 024°25'0 0.0
2018-Jun-15 20:56N 40°56' E 024°25'0 0.0
2018-Jun-15 20:26N 40°56' E 024°25'0 0.0
2018-Jun-15 19:50N 40°56' E 024°25'0 0.0
2018-Jun-15 19:26N 40°56' E 024°25'0 0.0
2018-Jun-15 18:50N 40°56' E 024°25'0 0.0
2018-Jun-15 18:26N 40°56' E 024°25'0 0.0
2018-Jun-15 17:44N 40°56' E 024°25'0 0.0
2018-Jun-15 17:20N 40°56' E 024°25'0 0.0
2018-Jun-15 16:50N 40°56' E 024°25'0 0.0
2018-Jun-15 16:26N 40°56' E 024°25'0 0.0
2018-Jun-15 15:53N 40°56' E 024°25'0 0.0
2018-Jun-15 15:29N 40°56' E 024°25'0 0.0
2018-Jun-15 14:59N 40°56' E 024°25'0 0.0
2018-Jun-15 14:29N 40°56' E 024°25'0 0.0
2018-Jun-15 13:57N 40°56' E 024°25'510.2
2018-Jun-15 13:30N 40°52' E 024°27'4 8.1
2018-Jun-15 12:58N 40°48' E 024°30'612.8
2018-Jun-15 12:30N 40°53' E 024°26'3 5.3
2018-Jun-15 11:55N 40°56' E 024°25'0 0.0
2018-Jun-15 11:28N 40°56' E 024°25'0 0.0
2018-Jun-15 10:55N 40°56' E 024°25'3 7.8
2018-Jun-15 10:30N 40°56' E 024°29'3 5.8
2018-Jun-15 09:59N 40°57' E 024°33'0 0.0
2018-Jun-15 09:29N 40°57' E 024°33'0 0.0
2018-Jun-15 08:53N 40°57' E 024°33'0 0.0
2018-Jun-15 08:29N 40°57' E 024°33'0 0.0
2018-Jun-15 07:59N 40°57' E 024°33'0 0.0
2018-Jun-15 07:29N 40°57' E 024°33'0 0.0
2018-Jun-15 06:59N 40°57' E 024°33'0 0.1
2018-Jun-15 06:30N 40°57' E 024°33'612.6
2018-Jun-15 06:00N 40°56' E 024°24'611.5
2018-Jun-15 05:30N 40°50' E 024°27'3 6.6
2018-Jun-15 05:00N 40°48' E 024°30'611.4
2018-Jun-15 04:30N 40°53' E 024°27'3 6.5
2018-Jun-15 03:59N 40°56' E 024°24'0 0.0
2018-Jun-15 03:29N 40°56' E 024°24'0 0.0
2018-Jun-15 02:56N 40°56' E 024°24'0 0.0
2018-Jun-15 02:26N 40°56' E 024°24'0 0.0
2018-Jun-15 01:56N 40°56' E 024°24'0 0.0
2018-Jun-15 01:26N 40°56' E 024°24'0 0.0
2018-Jun-15 00:59N 40°56' E 024°24'0 0.0
2018-Jun-15 00:26N 40°56' E 024°24'0 0.0
2018-Jun-14 23:50N 40°56' E 024°24'0 0.0
2018-Jun-14 23:23N 40°56' E 024°24'0 0.0
2018-Jun-14 22:59N 40°56' E 024°24'0 0.0
2018-Jun-14 22:29N 40°56' E 024°24'0 0.0
2018-Jun-14 21:59N 40°56' E 024°24'0 0.0
2018-Jun-14 21:29N 40°56' E 024°24'0 0.0
2018-Jun-14 20:59N 40°56' E 024°24'0 0.0
2018-Jun-14 20:29N 40°56' E 024°24'0 0.0
2018-Jun-14 19:59N 40°56' E 024°24'0 0.0
2018-Jun-14 19:29N 40°56' E 024°24'0 0.0
2018-Jun-14 18:59N 40°56' E 024°24'0 0.0
2018-Jun-14 18:29N 40°56' E 024°24'0 0.0
2018-Jun-14 17:59N 40°56' E 024°24'0 0.0
2018-Jun-14 17:29N 40°56' E 024°24'0 0.0
2018-Jun-14 16:59N 40°56' E 024°24'0 0.0
2018-Jun-14 16:29N 40°56' E 024°24'0 0.0
2018-Jun-14 15:59N 40°56' E 024°24'0 0.0
2018-Jun-14 15:29N 40°56' E 024°24'0 0.0
2018-Jun-14 14:59N 40°56' E 024°24'0 0.0
2018-Jun-14 14:29N 40°56' E 024°24'0 0.1
2018-Jun-14 14:00N 40°56' E 024°24'611.4
2018-Jun-14 13:28N 40°50' E 024°28'3 6.2
2018-Jun-14 13:00N 40°48' E 024°30'511.1
2018-Jun-14 12:30N 40°53' E 024°26'4 6.6
2018-Jun-14 11:58N 40°56' E 024°25'4 7.8
2018-Jun-14 11:30N 40°52' E 024°26'611.0
2018-Jun-14 11:00N 40°48' E 024°30'0 0.5
2018-Jun-14 10:23N 40°48' E 024°30'0 0.4
2018-Jun-14 10:00N 40°48' E 024°30'611.0
2018-Jun-14 09:30N 40°53' E 024°31'4 7.7
2018-Jun-14 08:59N 40°57' E 024°33'0 0.0
2018-Jun-14 08:29N 40°57' E 024°33'0 0.0
2018-Jun-14 07:59N 40°57' E 024°33'0 0.0
2018-Jun-14 07:29N 40°57' E 024°33'0 0.0
2018-Jun-14 06:59N 40°57' E 024°33'1 2.1
2018-Jun-14 06:30N 40°57' E 024°31'510.0
2018-Jun-14 06:00N 40°56' E 024°25'713.8
2018-Jun-14 05:30N 40°50' E 024°28'2 4.6
2018-Jun-14 04:58N 40°48' E 024°30'611.9
2018-Jun-14 04:30N 40°53' E 024°27'3 6.4
2018-Jun-14 03:58N 40°56' E 024°25'0 0.0
2018-Jun-14 03:22N 40°56' E 024°25'0 0.0
2018-Jun-14 02:58N 40°56' E 024°25'0 0.0
2018-Jun-14 02:28N 40°56' E 024°25'0 0.0
2018-Jun-14 01:58N 40°56' E 024°25'0 0.0
2018-Jun-14 01:28N 40°56' E 024°25'0 0.0
2018-Jun-14 00:58N 40°56' E 024°25'0 0.0
2018-Jun-14 00:28N 40°56' E 024°25'0 0.0
2018-Jun-13 23:58N 40°56' E 024°25'0 0.0
2018-Jun-13 23:28N 40°56' E 024°25'0 0.0
2018-Jun-13 22:55N 40°56' E 024°25'0 0.0
2018-Jun-13 22:28N 40°56' E 024°25'0 0.0
2018-Jun-13 21:58N 40°56' E 024°25'0 0.0
2018-Jun-13 21:28N 40°56' E 024°25'0 0.0
2018-Jun-13 20:58N 40°56' E 024°25'0 0.0
2018-Jun-13 20:28N 40°56' E 024°25'0 0.0
2018-Jun-13 19:58N 40°56' E 024°25'0 0.0
2018-Jun-13 19:28N 40°56' E 024°25'0 0.0
2018-Jun-13 18:58N 40°56' E 024°25'0 0.0
2018-Jun-13 18:28N 40°56' E 024°25'0 0.0
2018-Jun-13 17:58N 40°56' E 024°25'0 0.0
2018-Jun-13 17:28N 40°56' E 024°25'0 0.0
2018-Jun-13 16:58N 40°56' E 024°25'0 0.0
2018-Jun-13 16:28N 40°56' E 024°25'0 0.0
2018-Jun-13 15:58N 40°56' E 024°25'0 0.0
2018-Jun-13 15:28N 40°56' E 024°25'0 0.0
2018-Jun-13 14:58N 40°56' E 024°25'0 0.0
2018-Jun-13 14:28N 40°56' E 024°25'0 0.2
2018-Jun-13 14:00N 40°56' E 024°25'611.8
2018-Jun-13 13:29N 40°50' E 024°28'3 6.0
2018-Jun-13 13:00N 40°48' E 024°30'611.5
2018-Jun-13 12:30N 40°53' E 024°27'3 5.8
2018-Jun-13 11:56N 40°56' E 024°25'0 0.0
2018-Jun-13 11:29N 40°56' E 024°25'0 0.0
2018-Jun-13 10:49N 40°56' E 024°25'0 0.0
2018-Jun-13 10:31N 40°56' E 024°25'0 0.0
2018-Jun-13 10:01N 40°56' E 024°25'0 0.0
2018-Jun-13 09:31N 40°56' E 024°25'0 0.0
2018-Jun-13 09:01N 40°56' E 024°25'0 0.0
2018-Jun-13 08:31N 40°56' E 024°25'0 0.0
2018-Jun-13 07:58N 40°56' E 024°25'0 0.0
2018-Jun-13 07:28N 40°56' E 024°25'0 0.0
2018-Jun-13 06:57N 40°56' E 024°25'0 0.0
2018-Jun-13 06:31N 40°56' E 024°25'0 0.0
2018-Jun-13 06:00N 40°56' E 024°25'510.4
2018-Jun-13 05:31N 40°51' E 024°27'4 7.7
2018-Jun-13 05:00N 40°48' E 024°30'611.3
2018-Jun-13 04:30N 40°53' E 024°27'3 5.7
2018-Jun-13 03:55N 40°56' E 024°25'0 0.0
2018-Jun-13 03:13N 40°56' E 024°25'0 0.0
2018-Jun-13 02:55N 40°56' E 024°25'0 0.0
2018-Jun-13 02:25N 40°56' E 024°25'0 0.0
2018-Jun-13 01:49N 40°56' E 024°25'0 0.0
2018-Jun-13 01:25N 40°56' E 024°25'0 0.0
2018-Jun-13 00:49N 40°56' E 024°25'0 0.0
2018-Jun-13 00:28N 40°56' E 024°25'0 0.0
2018-Jun-12 23:58N 40°56' E 024°25'0 0.0
2018-Jun-12 23:25N 40°56' E 024°25'0 0.0
2018-Jun-12 22:55N 40°56' E 024°25'0 0.0
2018-Jun-12 22:28N 40°56' E 024°25'0 0.0
2018-Jun-12 21:58N 40°56' E 024°25'0 0.0
2018-Jun-12 21:28N 40°56' E 024°25'0 0.0
2018-Jun-12 20:58N 40°56' E 024°25'0 0.0
2018-Jun-12 20:28N 40°56' E 024°25'0 0.0
2018-Jun-12 19:58N 40°56' E 024°25'0 0.0
2018-Jun-12 19:28N 40°56' E 024°25'0 0.0
2018-Jun-12 18:58N 40°56' E 024°25'0 0.0
2018-Jun-12 18:28N 40°56' E 024°25'0 0.0
2018-Jun-12 17:52N 40°56' E 024°25'0 0.0
2018-Jun-12 17:25N 40°56' E 024°25'0 0.0
2018-Jun-12 16:55N 40°56' E 024°25'0 0.0
2018-Jun-12 16:25N 40°56' E 024°25'0 0.0
2018-Jun-12 15:49N 40°56' E 024°25'0 0.0
2018-Jun-12 14:37N 40°56' E 024°25'0 0.0
2018-Jun-12 14:08N 40°56' E 024°25'0 1.6
2018-Jun-12 14:01N 40°56' E 024°25'713.2
2018-Jun-12 13:31N 40°50' E 024°28'2 4.5
2018-Jun-12 12:59N 40°48' E 024°30'612.5
2018-Jun-12 12:29N 40°54' E 024°26'3 5.4
2018-Jun-12 11:59N 40°56' E 024°25'0 0.0
2018-Jun-12 11:29N 40°56' E 024°25'0 0.0
2018-Jun-12 10:59N 40°56' E 024°25'0 0.0
2018-Jun-12 10:29N 40°56' E 024°25'0 0.0
2018-Jun-12 09:59N 40°56' E 024°25'0 0.0
2018-Jun-12 09:29N 40°56' E 024°25'0 0.0
2018-Jun-12 08:59N 40°56' E 024°25'0 0.0
2018-Jun-12 08:26N 40°56' E 024°25'0 0.0
2018-Jun-12 07:59N 40°56' E 024°25'0 0.0
2018-Jun-12 07:26N 40°56' E 024°25'0 0.0
2018-Jun-12 06:59N 40°56' E 024°25'0 0.0
2018-Jun-12 06:29N 40°56' E 024°25'0 0.0
2018-Jun-12 05:59N 40°56' E 024°25'4 9.2
2018-Jun-12 05:30N 40°52' E 024°26'5 9.1
2018-Jun-12 05:00N 40°48' E 024°30'611.9
2018-Jun-12 04:30N 40°53' E 024°26'3 2.4
2018-Jun-12 03:18N 40°56' E 024°25'0 0.0
2018-Jun-12 03:00N 40°56' E 024°25'0 0.0
2018-Jun-12 02:30N 40°56' E 024°25'0 0.0
2018-Jun-12 01:06N 40°56' E 024°25'0 0.0
2018-Jun-12 01:00N 40°56' E 024°25'0 0.0
2018-Jun-12 00:30N 40°56' E 024°25'0 0.0
2018-Jun-12 00:00N 40°56' E 024°25'0 0.0
2018-Jun-11 23:30N 40°56' E 024°25'0 0.0
2018-Jun-11 23:00N 40°56' E 024°25'0 0.0
2018-Jun-11 22:30N 40°56' E 024°25'0 0.0
2018-Jun-11 22:00N 40°56' E 024°25'0 0.0
2018-Jun-11 21:30N 40°56' E 024°25'0 0.0
2018-Jun-11 21:00N 40°56' E 024°25'0 0.0
2018-Jun-11 20:30N 40°56' E 024°25'0 0.0
2018-Jun-11 20:00N 40°56' E 024°25'0 0.0
2018-Jun-11 19:30N 40°56' E 024°25'0 0.0
2018-Jun-11 19:00N 40°56' E 024°25'0 0.0
2018-Jun-11 18:30N 40°56' E 024°25'0 0.0
2018-Jun-11 18:00N 40°56' E 024°25'0 0.0
2018-Jun-11 17:30N 40°56' E 024°25'0 0.0
2018-Jun-11 17:00N 40°56' E 024°25'0 0.0
2018-Jun-11 16:30N 40°56' E 024°25'0 0.0
2018-Jun-11 16:00N 40°56' E 024°25'0 0.0
2018-Jun-11 15:26N 40°56' E 024°25'0 0.0
2018-Jun-11 14:56N 40°56' E 024°25'0 0.0
2018-Jun-11 14:26N 40°56' E 024°25'0 0.1
2018-Jun-11 14:00N 40°56' E 024°25'611.3
2018-Jun-11 13:30N 40°51' E 024°27'3 6.6
2018-Jun-11 12:59N 40°48' E 024°30'612.0
2018-Jun-11 12:30N 40°53' E 024°26'3 5.9
2018-Jun-11 11:59N 40°56' E 024°24'611.1
2018-Jun-11 11:25N 40°57' E 024°33'1 1.6
2018-Jun-11 11:01N 40°57' E 024°32'816.1
2018-Jun-11 10:31N 40°49' E 024°30'  
Track history (hours):
 
Tides and Currents Weather Stations Pressure Air Temp Water Temp Dewpoint Dewpoint Depression Visibility Wind Speed Wind Dir Waves Ship Positions

Energean Wave

Last reported at 2018-Jun-21 10:00 UTC. Time now 2018-Jun-21 10:11 UTC.
Position N 40°56' E 024°24'.

Length 47 m; draft 2 m.

Type: . MMSI: 239935100.

Date/timePositionNaut miles runAvg speedWind from/ knotsBaromVisibWave heightAir tempDewpointWater temp
2018-Jun-21 10:00N 40°56' E 024°24'0 0.0
2018-Jun-21 09:30N 40°56' E 024°24'0 0.0
2018-Jun-21 09:00N 40°56' E 024°24'0 0.0
2018-Jun-21 08:30N 40°56' E 024°24'0 0.0
2018-Jun-21 08:00N 40°56' E 024°24'0 0.0
2018-Jun-21 07:30N 40°56' E 024°24'0 0.0
2018-Jun-21 07:00N 40°56' E 024°24'0 0.0
2018-Jun-21 06:30N 40°56' E 024°24'0 0.0
2018-Jun-21 06:00N 40°56' E 024°24'5 9.6
2018-Jun-21 05:30N 40°51' E 024°27'4 8.1
2018-Jun-21 04:59N 40°48' E 024°30'511.3
2018-Jun-21 04:30N 40°53' E 024°27'3 6.9
2018-Jun-21 04:00N 40°56' E 024°24'0 0.0
2018-Jun-21 03:30N 40°56' E 024°24'0 0.0
2018-Jun-21 03:00N 40°56' E 024°24'0 0.0
2018-Jun-21 02:30N 40°56' E 024°24'0 0.0
2018-Jun-21 02:00N 40°56' E 024°24'0 0.0
2018-Jun-21 01:30N 40°56' E 024°24'0 0.0
2018-Jun-21 01:00N 40°56' E 024°24'0 0.0
2018-Jun-21 00:30N 40°56' E 024°24'0 0.0
2018-Jun-21 00:00N 40°56' E 024°24'0 0.0
2018-Jun-20 23:30N 40°56' E 024°24'0 0.0
2018-Jun-20 23:00N 40°56' E 024°24'0 0.0
2018-Jun-20 22:30N 40°56' E 024°24'0 0.0
2018-Jun-20 21:57N 40°56' E 024°24'0 0.0
2018-Jun-20 21:30N 40°56' E 024°24'0 0.0
2018-Jun-20 21:00N 40°56' E 024°24'0 0.0
2018-Jun-20 20:30N 40°56' E 024°24'0 0.0
2018-Jun-20 20:00N 40°56' E 024°24'0 0.0
2018-Jun-20 19:30N 40°56' E 024°24'0 0.0
2018-Jun-20 19:00N 40°56' E 024°24'0 0.0
2018-Jun-20 18:30N 40°56' E 024°24'0 0.0
2018-Jun-20 18:00N 40°56' E 024°24'0 0.0
2018-Jun-20 17:30N 40°56' E 024°24'0 0.0
2018-Jun-20 16:57N 40°56' E 024°24'0 0.0
2018-Jun-20 16:30N 40°56' E 024°24'0 0.0
2018-Jun-20 16:00N 40°56' E 024°24'0 0.0
2018-Jun-20 15:30N 40°56' E 024°24'0 0.0
2018-Jun-20 15:00N 40°56' E 024°24'0 0.0
2018-Jun-20 14:30N 40°56' E 024°24'0 0.2
2018-Jun-20 14:00N 40°56' E 024°24'714.9
2018-Jun-20 13:30N 40°49' E 024°28'2 3.3
2018-Jun-20 13:00N 40°48' E 024°30'611.4
2018-Jun-20 12:30N 40°53' E 024°26'3 6.1
2018-Jun-20 11:58N 40°56' E 024°25'0 0.0
2018-Jun-20 11:28N 40°56' E 024°25'4 8.9
2018-Jun-20 11:01N 40°56' E 024°30'2 3.9
2018-Jun-20 10:29N 40°57' E 024°33'613.2
2018-Jun-20 10:00N 40°51' E 024°31'3 6.3
2018-Jun-20 09:30N 40°48' E 024°30'0 0.3
2018-Jun-20 09:00N 40°48' E 024°30'0 0.4
2018-Jun-20 08:30N 40°48' E 024°30'815.3
2018-Jun-20 08:00N 40°55' E 024°32'2 3.7
2018-Jun-20 07:28N 40°57' E 024°33'0 0.0
2018-Jun-20 06:58N 40°57' E 024°33'0 0.1
2018-Jun-20 06:30N 40°57' E 024°33'612.3
2018-Jun-20 06:00N 40°56' E 024°25'611.7
2018-Jun-20 05:29N 40°50' E 024°28'3 6.2
2018-Jun-20 05:00N 40°48' E 024°30'510.9
2018-Jun-20 04:30N 40°53' E 024°27'3 6.8
2018-Jun-20 04:00N 40°56' E 024°25'0 0.0
2018-Jun-20 03:30N 40°56' E 024°25'0 0.0
2018-Jun-20 03:00N 40°56' E 024°25'0 0.0
2018-Jun-20 02:30N 40°56' E 024°25'0 0.0
2018-Jun-20 02:00N 40°56' E 024°25'0 0.0
2018-Jun-20 01:30N 40°56' E 024°25'0 0.0
2018-Jun-20 01:00N 40°56' E 024°25'0 0.0
2018-Jun-20 00:30N 40°56' E 024°25'0 0.0
2018-Jun-20 00:00N 40°56' E 024°25'0 0.0
2018-Jun-19 23:30N 40°56' E 024°25'0 0.0
2018-Jun-19 23:00N 40°56' E 024°25'0 0.0
2018-Jun-19 22:30N 40°56' E 024°25'0 0.0
2018-Jun-19 22:00N 40°56' E 024°25'0 0.0
2018-Jun-19 21:30N 40°56' E 024°25'0 0.0
2018-Jun-19 20:57N 40°56' E 024°25'0 0.0
2018-Jun-19 20:30N 40°56' E 024°25'0 0.0
2018-Jun-19 19:57N 40°56' E 024°25'0 0.0
2018-Jun-19 19:30N 40°56' E 024°25'0 0.0
2018-Jun-19 19:00N 40°56' E 024°25'0 0.0
2018-Jun-19 18:30N 40°56' E 024°25'0 0.0
2018-Jun-19 18:00N 40°56' E 024°25'0 0.0
2018-Jun-19 17:30N 40°56' E 024°25'0 0.0
2018-Jun-19 17:00N 40°56' E 024°25'0 0.0
2018-Jun-19 16:12N 40°56' E 024°25'0 0.0
2018-Jun-19 15:54N 40°56' E 024°25'0 0.0
2018-Jun-19 15:30N 40°56' E 024°25'0 0.0
2018-Jun-19 15:00N 40°56' E 024°25'0 0.0
2018-Jun-19 14:24N 40°56' E 024°25'0 0.3
2018-Jun-19 14:00N 40°56' E 024°24'815.8
2018-Jun-19 13:29N 40°49' E 024°29'1 1.8
2018-Jun-19 13:00N 40°48' E 024°30'611.3
2018-Jun-19 12:30N 40°53' E 024°27'3 6.3
2018-Jun-19 11:58N 40°56' E 024°25'0 0.0
2018-Jun-19 11:25N 40°56' E 024°25'0 0.0
2018-Jun-19 10:58N 40°56' E 024°25'0 0.0
2018-Jun-19 10:28N 40°56' E 024°25'0 0.0
2018-Jun-19 09:58N 40°56' E 024°25'0 0.0
2018-Jun-19 09:28N 40°56' E 024°25'0 0.0
2018-Jun-19 08:58N 40°56' E 024°25'0 0.0
2018-Jun-19 08:28N 40°56' E 024°25'0 0.0
2018-Jun-19 07:55N 40°56' E 024°25'0 0.0
2018-Jun-19 07:30N 40°56' E 024°25'0 0.0
2018-Jun-19 07:00N 40°56' E 024°25'0 0.0
2018-Jun-19 06:30N 40°56' E 024°25'0 0.0
2018-Jun-19 06:00N 40°56' E 024°25'4 9.2
2018-Jun-19 05:31N 40°52' E 024°27'5 8.6
2018-Jun-19 04:59N 40°48' E 024°30'611.6
2018-Jun-19 04:31N 40°53' E 024°27'3 5.8
2018-Jun-19 03:56N 40°56' E 024°25'0 0.0
2018-Jun-19 02:02N 40°56' E 024°25'0 0.0
2018-Jun-19 01:56N 40°56' E 024°25'0 0.0
2018-Jun-19 01:26N 40°56' E 024°25'0 0.0
2018-Jun-19 00:50N 40°56' E 024°25'0 0.0
2018-Jun-18 23:26N 40°56' E 024°25'0 0.0
2018-Jun-18 22:59N 40°56' E 024°25'0 0.0
2018-Jun-18 22:26N 40°56' E 024°25'0 0.0
2018-Jun-18 21:56N 40°56' E 024°25'0 0.0
2018-Jun-18 21:29N 40°56' E 024°25'0 0.0
2018-Jun-18 20:59N 40°56' E 024°25'0 0.0
2018-Jun-18 20:29N 40°56' E 024°25'0 0.0
2018-Jun-18 19:59N 40°56' E 024°25'0 0.0
2018-Jun-18 19:26N 40°56' E 024°25'0 0.0
2018-Jun-18 18:56N 40°56' E 024°25'0 0.0
2018-Jun-18 18:26N 40°56' E 024°25'0 0.0
2018-Jun-18 17:59N 40°56' E 024°25'0 0.0
2018-Jun-18 17:26N 40°56' E 024°25'0 0.0
2018-Jun-18 16:56N 40°56' E 024°25'0 0.0
2018-Jun-18 16:29N 40°56' E 024°25'0 0.0
2018-Jun-18 15:59N 40°56' E 024°25'0 0.0
2018-Jun-18 15:14N 40°56' E 024°25'0 0.0
2018-Jun-18 14:56N 40°56' E 024°25'0 0.0
2018-Jun-18 14:29N 40°56' E 024°25'0 0.4
2018-Jun-18 14:00N 40°56' E 024°25'714.3
2018-Jun-18 13:30N 40°49' E 024°28'2 4.4
2018-Jun-18 13:00N 40°48' E 024°30'611.5
2018-Jun-18 12:30N 40°53' E 024°26'4 7.0
2018-Jun-18 12:00N 40°56' E 024°25'612.2
2018-Jun-18 11:31N 40°57' E 024°33'0 0.1
2018-Jun-18 10:56N 40°57' E 024°33'612.9
2018-Jun-18 10:30N 40°52' E 024°31'4 8.1
2018-Jun-18 10:01N 40°48' E 024°30'0 0.1
2018-Jun-18 09:30N 40°48' E 024°30'0 0.1
2018-Jun-18 09:00N 40°48' E 024°30'5 9.3
2018-Jun-18 08:30N 40°52' E 024°31'5 9.3
2018-Jun-18 07:58N 40°57' E 024°33'0 0.0
2018-Jun-18 07:28N 40°57' E 024°33'0 0.0
2018-Jun-18 06:58N 40°57' E 024°33'1 2.5
2018-Jun-18 06:30N 40°57' E 024°31'5 9.3
2018-Jun-18 06:00N 40°56' E 024°25'4 7.8
2018-Jun-18 05:30N 40°52' E 024°26'5 9.6
2018-Jun-18 05:00N 40°48' E 024°30'510.7
2018-Jun-18 04:30N 40°53' E 024°27'4 6.5
2018-Jun-18 03:58N 40°56' E 024°25'0 0.0
2018-Jun-18 03:28N 40°56' E 024°25'0 0.0
2018-Jun-18 02:58N 40°56' E 024°25'0 0.0
2018-Jun-18 02:25N 40°56' E 024°25'0 0.0
2018-Jun-18 01:55N 40°56' E 024°25'0 0.0
2018-Jun-18 01:28N 40°56' E 024°25'0 0.0
2018-Jun-18 00:58N 40°56' E 024°25'0 0.0
2018-Jun-18 00:28N 40°56' E 024°25'0 0.0
2018-Jun-17 23:55N 40°56' E 024°25'0 0.0
2018-Jun-17 23:25N 40°56' E 024°25'0 0.0
2018-Jun-17 22:55N 40°56' E 024°25'0 0.0
2018-Jun-17 22:19N 40°56' E 024°25'0 0.0
2018-Jun-17 21:49N 40°56' E 024°25'0 0.0
2018-Jun-17 21:25N 40°56' E 024°25'0 0.0
2018-Jun-17 20:58N 40°56' E 024°25'0 0.0
2018-Jun-17 20:25N 40°56' E 024°25'0 0.0
2018-Jun-17 19:55N 40°56' E 024°25'0 0.0
2018-Jun-17 19:25N 40°56' E 024°25'0 0.0
2018-Jun-17 18:55N 40°56' E 024°25'0 0.0
2018-Jun-17 18:25N 40°56' E 024°25'0 0.0
2018-Jun-17 17:55N 40°56' E 024°25'0 0.0
2018-Jun-17 17:25N 40°56' E 024°25'0 0.0
2018-Jun-17 16:55N 40°56' E 024°25'0 0.0
2018-Jun-17 16:25N 40°56' E 024°25'0 0.0
2018-Jun-17 15:55N 40°56' E 024°25'0 0.0
2018-Jun-17 15:25N 40°56' E 024°25'0 0.0
2018-Jun-17 14:55N 40°56' E 024°25'0 0.0
2018-Jun-17 14:25N 40°56' E 024°25'0 0.0
2018-Jun-17 13:55N 40°56' E 024°25'0 0.0
2018-Jun-17 13:25N 40°56' E 024°25'0 0.0
2018-Jun-17 12:55N 40°56' E 024°25'0 0.0
2018-Jun-17 12:25N 40°56' E 024°25'0 0.0
2018-Jun-17 11:55N 40°56' E 024°25'0 0.0
2018-Jun-17 11:28N 40°56' E 024°25'0 0.0
2018-Jun-17 10:55N 40°56' E 024°25'0 0.0
2018-Jun-17 10:28N 40°56' E 024°25'0 0.0
2018-Jun-17 09:58N 40°56' E 024°25'0 0.0
2018-Jun-17 09:28N 40°56' E 024°25'0 0.0
2018-Jun-17 08:58N 40°56' E 024°25'0 0.0
2018-Jun-17 08:28N 40°56' E 024°25'0 0.0
2018-Jun-17 07:55N 40°56' E 024°25'0 0.0
2018-Jun-17 07:25N 40°56' E 024°25'0 0.0
2018-Jun-17 06:58N 40°56' E 024°25'0 0.0
2018-Jun-17 06:25N 40°56' E 024°25'0 0.0
2018-Jun-17 05:55N 40°56' E 024°25'0 0.0
2018-Jun-17 05:01N 40°56' E 024°25'0 0.0
2018-Jun-17 04:40N 40°56' E 024°25'0 0.0
2018-Jun-17 04:28N 40°56' E 024°25'0 0.0
2018-Jun-17 03:55N 40°56' E 024°25'0 0.0
2018-Jun-17 03:13N 40°56' E 024°25'0 0.0
2018-Jun-17 02:43N 40°56' E 024°25'0 0.0
2018-Jun-17 02:07N 40°56' E 024°25'0 0.0
2018-Jun-17 01:55N 40°56' E 024°25'0 0.0
2018-Jun-17 00:49N 40°56' E 024°25'0 0.0
2018-Jun-17 00:22N 40°56' E 024°25'0 0.0
2018-Jun-16 23:55N 40°56' E 024°25'0 0.0
2018-Jun-16 23:25N 40°56' E 024°25'0 0.0
2018-Jun-16 22:31N 40°56' E 024°25'0 0.0
2018-Jun-16 22:25N 40°56' E 024°25'0 0.0
2018-Jun-16 21:56N 40°56' E 024°25'410.4
2018-Jun-16 21:30N 40°52' E 024°27'4 8.6
2018-Jun-16 20:59N 40°48' E 024°30'510.3
2018-Jun-16 20:30N 40°52' E 024°27'4 6.6
2018-Jun-16 19:55N 40°56' E 024°25'0 0.0
2018-Jun-16 19:25N 40°56' E 024°25'0 0.0
2018-Jun-16 18:55N 40°56' E 024°25'0 0.0
2018-Jun-16 18:25N 40°56' E 024°25'0 0.0
2018-Jun-16 17:55N 40°56' E 024°25'0 0.0
2018-Jun-16 17:22N 40°56' E 024°25'0 0.0
2018-Jun-16 16:58N 40°56' E 024°25'0 0.0
2018-Jun-16 16:28N 40°56' E 024°25'0 0.0
2018-Jun-16 15:55N 40°56' E 024°25'0 0.0
2018-Jun-16 15:25N 40°56' E 024°25'0 0.0
2018-Jun-16 14:58N 40°56' E 024°25'0 0.0
2018-Jun-16 14:28N 40°56' E 024°25'0 0.0
2018-Jun-16 14:00N 40°56' E 024°25'611.0
2018-Jun-16 13:30N 40°51' E 024°27'3 6.4
2018-Jun-16 12:59N 40°48' E 024°30'511.4
2018-Jun-16 12:30N 40°53' E 024°26'3 6.1
2018-Jun-16 11:56N 40°56' E 024°25'0 0.0
2018-Jun-16 11:26N 40°56' E 024°25'0 0.0
2018-Jun-16 10:56N 40°56' E 024°25'0 0.0
2018-Jun-16 10:20N 40°56' E 024°25'0 0.0
2018-Jun-16 09:56N 40°56' E 024°25'0 0.0
2018-Jun-16 09:20N 40°56' E 024°25'0 0.0
2018-Jun-16 08:56N 40°56' E 024°25'0 0.0
2018-Jun-16 08:26N 40°56' E 024°25'0 0.0
2018-Jun-16 07:56N 40°56' E 024°25'0 0.0
2018-Jun-16 07:26N 40°56' E 024°25'0 0.0
2018-Jun-16 06:56N 40°56' E 024°25'0 0.0
2018-Jun-16 06:20N 40°56' E 024°25'0 0.0
2018-Jun-16 05:54N 40°56' E 024°25'4 9.6
2018-Jun-16 05:30N 40°52' E 024°26'510.3
2018-Jun-16 05:00N 40°48' E 024°30'611.1
2018-Jun-16 04:31N 40°53' E 024°27'3 6.4
2018-Jun-16 03:59N 40°56' E 024°25'0 0.0
2018-Jun-16 03:29N 40°56' E 024°25'0 0.0
2018-Jun-16 02:59N 40°56' E 024°25'0 0.0
2018-Jun-16 02:29N 40°56' E 024°25'0 0.0
2018-Jun-16 01:56N 40°56' E 024°25'0 0.0
2018-Jun-16 01:26N 40°56' E 024°25'0 0.0
2018-Jun-16 00:56N 40°56' E 024°25'0 0.0
2018-Jun-16 00:26N 40°56' E 024°25'0 0.0
2018-Jun-15 23:44N 40°56' E 024°25'0 0.0
2018-Jun-15 23:26N 40°56' E 024°25'0 0.0
2018-Jun-15 22:56N 40°56' E 024°25'0 0.0
2018-Jun-15 21:44N 40°56' E 024°25'0 0.0
2018-Jun-15 20:56N 40°56' E 024°25'0 0.0
2018-Jun-15 20:26N 40°56' E 024°25'0 0.0
2018-Jun-15 19:50N 40°56' E 024°25'0 0.0
2018-Jun-15 19:26N 40°56' E 024°25'0 0.0
2018-Jun-15 18:50N 40°56' E 024°25'0 0.0
2018-Jun-15 18:26N 40°56' E 024°25'0 0.0
2018-Jun-15 17:44N 40°56' E 024°25'0 0.0
2018-Jun-15 17:20N 40°56' E 024°25'0 0.0
2018-Jun-15 16:50N 40°56' E 024°25'0 0.0
2018-Jun-15 16:26N 40°56' E 024°25'0 0.0
2018-Jun-15 15:53N 40°56' E 024°25'0 0.0
2018-Jun-15 15:29N 40°56' E 024°25'0 0.0
2018-Jun-15 14:59N 40°56' E 024°25'0 0.0
2018-Jun-15 14:29N 40°56' E 024°25'0 0.0
2018-Jun-15 13:57N 40°56' E 024°25'510.2
2018-Jun-15 13:30N 40°52' E 024°27'4 8.1
2018-Jun-15 12:58N 40°48' E 024°30'612.8
2018-Jun-15 12:30N 40°53' E 024°26'3 5.3
2018-Jun-15 11:55N 40°56' E 024°25'0 0.0
2018-Jun-15 11:28N 40°56' E 024°25'0 0.0
2018-Jun-15 10:55N 40°56' E 024°25'3 7.8
2018-Jun-15 10:30N 40°56' E 024°29'3 5.8
2018-Jun-15 09:59N 40°57' E 024°33'0 0.0
2018-Jun-15 09:29N 40°57' E 024°33'0 0.0
2018-Jun-15 08:53N 40°57' E 024°33'0 0.0
2018-Jun-15 08:29N 40°57' E 024°33'0 0.0
2018-Jun-15 07:59N 40°57' E 024°33'0 0.0
2018-Jun-15 07:29N 40°57' E 024°33'0 0.0
2018-Jun-15 06:59N 40°57' E 024°33'0 0.1
2018-Jun-15 06:30N 40°57' E 024°33'612.6
2018-Jun-15 06:00N 40°56' E 024°24'611.5
2018-Jun-15 05:30N 40°50' E 024°27'3 6.6
2018-Jun-15 05:00N 40°48' E 024°30'611.4
2018-Jun-15 04:30N 40°53' E 024°27'3 6.5
2018-Jun-15 03:59N 40°56' E 024°24'0 0.0
2018-Jun-15 03:29N 40°56' E 024°24'0 0.0
2018-Jun-15 02:56N 40°56' E 024°24'0 0.0
2018-Jun-15 02:26N 40°56' E 024°24'0 0.0
2018-Jun-15 01:56N 40°56' E 024°24'0 0.0
2018-Jun-15 01:26N 40°56' E 024°24'0 0.0
2018-Jun-15 00:59N 40°56' E 024°24'0 0.0
2018-Jun-15 00:26N 40°56' E 024°24'0 0.0
2018-Jun-14 23:50N 40°56' E 024°24'0 0.0
2018-Jun-14 23:23N 40°56' E 024°24'0 0.0
2018-Jun-14 22:59N 40°56' E 024°24'0 0.0
2018-Jun-14 22:29N 40°56' E 024°24'0 0.0
2018-Jun-14 21:59N 40°56' E 024°24'0 0.0
2018-Jun-14 21:29N 40°56' E 024°24'0 0.0
2018-Jun-14 20:59N 40°56' E 024°24'0 0.0
2018-Jun-14 20:29N 40°56' E 024°24'0 0.0
2018-Jun-14 19:59N 40°56' E 024°24'0 0.0
2018-Jun-14 19:29N 40°56' E 024°24'0 0.0
2018-Jun-14 18:59N 40°56' E 024°24'0 0.0
2018-Jun-14 18:29N 40°56' E 024°24'0 0.0
2018-Jun-14 17:59N 40°56' E 024°24'0 0.0
2018-Jun-14 17:29N 40°56' E 024°24'0 0.0
2018-Jun-14 16:59N 40°56' E 024°24'0 0.0
2018-Jun-14 16:29N 40°56' E 024°24'0 0.0
2018-Jun-14 15:59N 40°56' E 024°24'0 0.0
2018-Jun-14 15:29N 40°56' E 024°24'0 0.0
2018-Jun-14 14:59N 40°56' E 024°24'0 0.0
2018-Jun-14 14:29N 40°56' E 024°24'0 0.1
2018-Jun-14 14:00N 40°56' E 024°24'611.4
2018-Jun-14 13:28N 40°50' E 024°28'3 6.2
2018-Jun-14 13:00N 40°48' E 024°30'511.1
2018-Jun-14 12:30N 40°53' E 024°26'4 6.6
2018-Jun-14 11:58N 40°56' E 024°25'4 7.8
2018-Jun-14 11:30N 40°52' E 024°26'611.0
2018-Jun-14 11:00N 40°48' E 024°30'0 0.5
2018-Jun-14 10:23N 40°48' E 024°30'0 0.4
2018-Jun-14 10:00N 40°48' E 024°30'611.0
2018-Jun-14 09:30N 40°53' E 024°31'4 7.7
2018-Jun-14 08:59N 40°57' E 024°33'0 0.0
2018-Jun-14 08:29N 40°57' E 024°33'0 0.0
2018-Jun-14 07:59N 40°57' E 024°33'0 0.0
2018-Jun-14 07:29N 40°57' E 024°33'0 0.0
2018-Jun-14 06:59N 40°57' E 024°33'1 2.1
2018-Jun-14 06:30N 40°57' E 024°31'510.0
2018-Jun-14 06:00N 40°56' E 024°25'713.8
2018-Jun-14 05:30N 40°50' E 024°28'2 4.6
2018-Jun-14 04:58N 40°48' E 024°30'611.9
2018-Jun-14 04:30N 40°53' E 024°27'3 6.4
2018-Jun-14 03:58N 40°56' E 024°25'0 0.0
2018-Jun-14 03:22N 40°56' E 024°25'0 0.0
2018-Jun-14 02:58N 40°56' E 024°25'0 0.0
2018-Jun-14 02:28N 40°56' E 024°25'0 0.0
2018-Jun-14 01:58N 40°56' E 024°25'0 0.0
2018-Jun-14 01:28N 40°56' E 024°25'0 0.0
2018-Jun-14 00:58N 40°56' E 024°25'0 0.0
2018-Jun-14 00:28N 40°56' E 024°25'0 0.0
2018-Jun-13 23:58N 40°56' E 024°25'0 0.0
2018-Jun-13 23:28N 40°56' E 024°25'0 0.0
2018-Jun-13 22:55N 40°56' E 024°25'0 0.0
2018-Jun-13 22:28N 40°56' E 024°25'0 0.0
2018-Jun-13 21:58N 40°56' E 024°25'0 0.0
2018-Jun-13 21:28N 40°56' E 024°25'0 0.0
2018-Jun-13 20:58N 40°56' E 024°25'0 0.0
2018-Jun-13 20:28N 40°56' E 024°25'0 0.0
2018-Jun-13 19:58N 40°56' E 024°25'0 0.0
2018-Jun-13 19:28N 40°56' E 024°25'0 0.0
2018-Jun-13 18:58N 40°56' E 024°25'0 0.0
2018-Jun-13 18:28N 40°56' E 024°25'0 0.0
2018-Jun-13 17:58N 40°56' E 024°25'0 0.0
2018-Jun-13 17:28N 40°56' E 024°25'0 0.0
2018-Jun-13 16:58N 40°56' E 024°25'0 0.0
2018-Jun-13 16:28N 40°56' E 024°25'0 0.0
2018-Jun-13 15:58N 40°56' E 024°25'0 0.0
2018-Jun-13 15:28N 40°56' E 024°25'0 0.0
2018-Jun-13 14:58N 40°56' E 024°25'0 0.0
2018-Jun-13 14:28N 40°56' E 024°25'0 0.2
2018-Jun-13 14:00N 40°56' E 024°25'611.8
2018-Jun-13 13:29N 40°50' E 024°28'3 6.0
2018-Jun-13 13:00N 40°48' E 024°30'611.5
2018-Jun-13 12:30N 40°53' E 024°27'3 5.8
2018-Jun-13 11:56N 40°56' E 024°25'0 0.0
2018-Jun-13 11:29N 40°56' E 024°25'0 0.0
2018-Jun-13 10:49N 40°56' E 024°25'0 0.0
2018-Jun-13 10:31N 40°56' E 024°25'0 0.0
2018-Jun-13 10:01N 40°56' E 024°25'0 0.0
2018-Jun-13 09:31N 40°56' E 024°25'0 0.0
2018-Jun-13 09:01N 40°56' E 024°25'0 0.0
2018-Jun-13 08:31N 40°56' E 024°25'0 0.0
2018-Jun-13 07:58N 40°56' E 024°25'0 0.0
2018-Jun-13 07:28N 40°56' E 024°25'0 0.0
2018-Jun-13 06:57N 40°56' E 024°25'0 0.0
2018-Jun-13 06:31N 40°56' E 024°25'0 0.0
2018-Jun-13 06:00N 40°56' E 024°25'510.4
2018-Jun-13 05:31N 40°51' E 024°27'4 7.7
2018-Jun-13 05:00N 40°48' E 024°30'611.3
2018-Jun-13 04:30N 40°53' E 024°27'3 5.7
2018-Jun-13 03:55N 40°56' E 024°25'0 0.0
2018-Jun-13 03:13N 40°56' E 024°25'0 0.0
2018-Jun-13 02:55N 40°56' E 024°25'0 0.0
2018-Jun-13 02:25N 40°56' E 024°25'0 0.0
2018-Jun-13 01:49N 40°56' E 024°25'0 0.0
2018-Jun-13 01:25N 40°56' E 024°25'0 0.0
2018-Jun-13 00:49N 40°56' E 024°25'0 0.0
2018-Jun-13 00:28N 40°56' E 024°25'0 0.0
2018-Jun-12 23:58N 40°56' E 024°25'0 0.0
2018-Jun-12 23:25N 40°56' E 024°25'0 0.0
2018-Jun-12 22:55N 40°56' E 024°25'0 0.0
2018-Jun-12 22:28N 40°56' E 024°25'0 0.0
2018-Jun-12 21:58N 40°56' E 024°25'0 0.0
2018-Jun-12 21:28N 40°56' E 024°25'0 0.0
2018-Jun-12 20:58N 40°56' E 024°25'0 0.0
2018-Jun-12 20:28N 40°56' E 024°25'0 0.0
2018-Jun-12 19:58N 40°56' E 024°25'0 0.0
2018-Jun-12 19:28N 40°56' E 024°25'0 0.0
2018-Jun-12 18:58N 40°56' E 024°25'0 0.0
2018-Jun-12 18:28N 40°56' E 024°25'0 0.0
2018-Jun-12 17:52N 40°56' E 024°25'0 0.0
2018-Jun-12 17:25N 40°56' E 024°25'0 0.0
2018-Jun-12 16:55N 40°56' E 024°25'0 0.0
2018-Jun-12 16:25N 40°56' E 024°25'0 0.0
2018-Jun-12 15:49N 40°56' E 024°25'0 0.0
2018-Jun-12 14:37N 40°56' E 024°25'0 0.0
2018-Jun-12 14:08N 40°56' E 024°25'0 1.6
2018-Jun-12 14:01N 40°56' E 024°25'713.2
2018-Jun-12 13:31N 40°50' E 024°28'2 4.5
2018-Jun-12 12:59N 40°48' E 024°30'612.5
2018-Jun-12 12:29N 40°54' E 024°26'3 5.4
2018-Jun-12 11:59N 40°56' E 024°25'0 0.0
2018-Jun-12 11:29N 40°56' E 024°25'0 0.0
2018-Jun-12 10:59N 40°56' E 024°25'0 0.0
2018-Jun-12 10:29N 40°56' E 024°25'0 0.0
2018-Jun-12 09:59N 40°56' E 024°25'0 0.0
2018-Jun-12 09:29N 40°56' E 024°25'0 0.0
2018-Jun-12 08:59N 40°56' E 024°25'0 0.0
2018-Jun-12 08:26N 40°56' E 024°25'0 0.0
2018-Jun-12 07:59N 40°56' E 024°25'0 0.0
2018-Jun-12 07:26N 40°56' E 024°25'0 0.0
2018-Jun-12 06:59N 40°56' E 024°25'0 0.0
2018-Jun-12 06:29N 40°56' E 024°25'0 0.0
2018-Jun-12 05:59N 40°56' E 024°25'4 9.2
2018-Jun-12 05:30N 40°52' E 024°26'5 9.1
2018-Jun-12 05:00N 40°48' E 024°30'611.9
2018-Jun-12 04:30N 40°53' E 024°26'3 2.4
2018-Jun-12 03:18N 40°56' E 024°25'0 0.0
2018-Jun-12 03:00N 40°56' E 024°25'0 0.0
2018-Jun-12 02:30N 40°56' E 024°25'0 0.0
2018-Jun-12 01:06N 40°56' E 024°25'0 0.0
2018-Jun-12 01:00N 40°56' E 024°25'0 0.0
2018-Jun-12 00:30N 40°56' E 024°25'0 0.0
2018-Jun-12 00:00N 40°56' E 024°25'0 0.0
2018-Jun-11 23:30N 40°56' E 024°25'0 0.0
2018-Jun-11 23:00N 40°56' E 024°25'0 0.0
2018-Jun-11 22:30N 40°56' E 024°25'0 0.0
2018-Jun-11 22:00N 40°56' E 024°25'0 0.0
2018-Jun-11 21:30N 40°56' E 024°25'0 0.0
2018-Jun-11 21:00N 40°56' E 024°25'0 0.0
2018-Jun-11 20:30N 40°56' E 024°25'0 0.0
2018-Jun-11 20:00N 40°56' E 024°25'0 0.0
2018-Jun-11 19:30N 40°56' E 024°25'0 0.0
2018-Jun-11 19:00N 40°56' E 024°25'0 0.0
2018-Jun-11 18:30N 40°56' E 024°25'0 0.0
2018-Jun-11 18:00N 40°56' E 024°25'0 0.0
2018-Jun-11 17:30N 40°56' E 024°25'0 0.0
2018-Jun-11 17:00N 40°56' E 024°25'0 0.0
2018-Jun-11 16:30N 40°56' E 024°25'0 0.0
2018-Jun-11 16:00N 40°56' E 024°25'0 0.0
2018-Jun-11 15:26N 40°56' E 024°25'0 0.0
2018-Jun-11 14:56N 40°56' E 024°25'0 0.0
2018-Jun-11 14:26N 40°56' E 024°25'0 0.1
2018-Jun-11 14:00N 40°56' E 024°25'611.3
2018-Jun-11 13:30N 40°51' E 024°27'3 6.6
2018-Jun-11 12:59N 40°48' E 024°30'612.0
2018-Jun-11 12:30N 40°53' E 024°26'3 5.9
2018-Jun-11 11:59N 40°56' E 024°24'611.1
2018-Jun-11 11:25N 40°57' E 024°33'1 1.6
2018-Jun-11 11:01N 40°57' E 024°32'816.1
2018-Jun-11 10:31N 40°49' E 024°30'  

Dump ship's entire track history